Mount Horeb, WI

1:49 PM CST on December 03, 2016 (GMT -0600)
Maple Dr. | | Change Station

Elev 1181 ft 43.00 °N, 89.74 °W | Updated 27 seconds ago

Overcast
Overcast
32.4 °F
Feels Like 29 °F
N
3.8
Wind Variable Wind from SSE
Gusts 3.8 mph

Today
High -- | Low -- °F
--% Chance of Precip.
Yesterday
High -- | Low -- °F
Precip. -- in
Pressure 30.30 in
Visibility 10.0 miles
Clouds Overcast 3100 ft
Windchill 29 °F
Dew Point 25 °F
Humidity 75%
Rainfall 0.00 in
Snow Depth Not available.
7:13 AM 4:24 PM
Waxing Crescent, 17% visible
METAR KC29 031935Z AUTO 21004KT 10SM OVC031 01/M04 A3030 RMK AO1 T00101042
Pressure 30.30 in
Visibility 10.0 miles
Clouds Overcast 3100 ft
Windchill 29 °F
Dew Point 25 °F
Humidity 75%
Rainfall 0.00 in
Snow Depth Not available.
7:13 AM 4:24 PM
Waxing Crescent, 17% visible
METAR KC29 031935Z AUTO 21004KT 10SM OVC031 01/M04 A3030 RMK AO1 T00101042

10-Day Weather Forecast

Almanac

Astronomy

Dec. 03, 2016 Rise Set
Actual Time
Civil Twilight
Nautical Twilight
Astronomical Twilight
Moon
Length of Visible Light
Length of Day
Tomorrow will be .
, % of the Moon is Illuminated

Today's Extremes

State Highs State Lows

Community

WunderPhotos

Upload Photos

1,955,481 photos uploaded!

WunderBlog® & News

Nearby

Air Quality

  Air Quality AQ Index Pollutant
Not available.

Snow Depth

Station Depth Elevation

Earthquake Activity

City Distance Mag. Time & Date
Minimum magnitude displayed is 2.5.

Coastal Water Temperatures

Place Temperature

Stations

Nearby Weather Stations

Station Location Temp. Windchill Dew Point Humidity Wind Precip. Elev Updated Type
                   

Watches & Warnings

There are currently no watches in effect.